Time;durP1;ratioP1;P1;durP2;ratioP2;P2;SDS_P1;SDS_P2;PMS_P1;PMS_P2;Temp;Humidity;BMP_temperature;BMP_pressure;BME280_temperature;BME280_humidity;BME280_pressure;Samples;Min_cycle;Max_cycle;Signal;HPM_P1;HPM_P2
2023/07/25 00:00:07;;;;;;;2.85;1.00;;;;;;;15.29;100.00;100158.41;6276404;28;20142;-74
2023/07/25 00:03:09;;;;;;;3.90;1.17;;;;;;;15.18;100.00;100156.66;6275144;28;20077;-73
2023/07/25 00:06:10;;;;;;;5.53;1.40;;;;;;;15.17;100.00;100158.47;6284627;28;20049;-74
2023/07/25 00:09:11;;;;;;;4.80;1.05;;;;;;;15.18;100.00;100168.09;6284268;28;20353;-74
2023/07/25 00:12:14;;;;;;;3.28;1.10;;;;;;;15.20;100.00;100157.38;6276053;28;20053;-74
2023/07/25 00:15:16;;;;;;;2.78;1.05;;;;;;;15.22;100.00;100164.22;6275337;28;20047;-74
2023/07/25 00:18:17;;;;;;;1.48;0.80;;;;;;;15.19;100.00;100158.34;6276072;28;20052;-75
2023/07/25 00:21:18;;;;;;;2.25;1.10;;;;;;;15.18;100.00;100157.50;6275930;28;20130;-74
2023/07/25 00:24:20;;;;;;;1.38;0.93;;;;;;;15.25;100.00;100165.75;6281468;28;20060;-74
2023/07/25 00:27:23;;;;;;;1.35;1.02;;;;;;;15.31;100.00;100173.22;6274891;28;20048;-74
2023/07/25 00:30:25;;;;;;;2.83;0.90;;;;;;;15.23;100.00;100173.00;6275092;28;20037;-74
2023/07/25 00:33:26;;;;;;;1.70;1.10;;;;;;;15.20;100.00;100168.78;6275054;28;20425;-74
2023/07/25 00:36:27;;;;;;;7.75;1.23;;;;;;;15.19;100.00;100166.28;6275206;28;20357;-74
2023/07/25 00:39:29;;;;;;;1.55;0.93;;;;;;;15.18;100.00;100162.78;6275546;28;20045;-74
2023/07/25 00:42:31;;;;;;;4.22;1.70;;;;;;;15.19;100.00;100163.63;6274921;28;20045;-74
2023/07/25 00:45:34;;;;;;;2.50;1.58;;;;;;;15.11;100.00;100168.72;6275341;28;20199;-74
2023/07/25 00:48:36;;;;;;;5.28;1.65;;;;;;;15.07;100.00;100170.75;6275592;28;20052;-75
2023/07/25 00:51:38;;;;;;;4.28;1.45;;;;;;;15.13;100.00;100172.94;6275028;28;20041;-74
2023/07/25 00:54:40;;;;;;;13.65;1.55;;;;;;;15.16;100.00;100180.59;6275063;28;20433;-74
2023/07/25 00:57:43;;;;;;;2.72;1.15;;;;;;;15.11;100.00;100179.28;6275252;28;20063;-74
2023/07/25 01:00:45;;;;;;;3.40;0.98;;;;;;;15.15;100.00;100181.56;6283087;28;20045;-74
2023/07/25 01:03:47;;;;;;;1.25;0.95;;;;;;;15.20;100.00;100179.38;6270823;28;20049;-74
2023/07/25 01:06:48;;;;;;;2.75;1.30;;;;;;;15.18;100.00;100183.97;6283425;28;20448;-74
2023/07/25 01:09:50;;;;;;;5.38;1.23;;;;;;;15.16;100.00;100177.09;6283659;28;20456;-74
2023/07/25 01:12:52;;;;;;;1.35;0.90;;;;;;;15.19;100.00;100171.56;6282487;28;20053;-74
2023/07/25 01:15:55;;;;;;;4.55;1.20;;;;;;;15.20;100.00;100175.91;6274823;28;20060;-75
2023/07/25 01:18:57;;;;;;;3.72;2.00;;;;;;;15.13;100.00;100180.88;6275054;28;20052;-74
2023/07/25 01:21:59;;;;;;;1.90;1.00;;;;;;;15.06;100.00;100179.66;6276838;28;20045;-74
2023/07/25 01:25:02;;;;;;;3.25;1.80;;;;;;;15.05;100.00;100191.22;6274719;28;20060;-74
2023/07/25 01:28:03;;;;;;;3.47;1.23;;;;;;;15.04;100.00;100178.97;6279444;28;20146;-74
2023/07/25 01:31:05;;;;;;;2.17;1.13;;;;;;;15.01;100.00;100188.94;6282110;28;20452;-74
2023/07/25 01:34:06;;;;;;;2.70;1.60;;;;;;;15.05;100.00;100183.28;6285162;28;20361;-74
2023/07/25 01:37:08;;;;;;;3.70;1.20;;;;;;;15.07;100.00;100188.44;6288336;28;20056;-74
2023/07/25 01:40:12;;;;;;;3.67;1.65;;;;;;;15.12;100.00;100188.91;6279770;28;20041;-74
2023/07/25 01:43:14;;;;;;;4.30;1.00;;;;;;;15.11;100.00;100190.72;6279214;28;20052;-74
2023/07/25 01:46:15;;;;;;;3.40;1.00;;;;;;;15.07;100.00;100194.56;6279453;28;20330;-74
2023/07/25 01:49:17;;;;;;;4.65;1.35;;;;;;;15.05;100.00;100195.69;6283410;28;20045;-74
2023/07/25 01:52:18;;;;;;;5.95;1.60;;;;;;;15.01;100.00;100191.59;6287566;28;20040;-74
2023/07/25 01:55:22;;;;;;;3.00;1.08;;;;;;;15.06;100.00;100186.78;6283009;28;20041;-74
2023/07/25 01:58:23;;;;;;;3.60;1.45;;;;;;;15.06;100.00;100200.00;6292559;28;20052;-74
2023/07/25 02:01:25;;;;;;;2.63;1.20;;;;;;;14.95;100.00;100204.34;6282272;28;20045;-73
2023/07/25 02:04:26;;;;;;;2.47;1.13;;;;;;;14.98;100.00;100200.59;6278979;28;20052;-74
2023/07/25 02:07:27;;;;;;;5.90;1.92;;;;;;;14.96;100.00;100200.75;6284449;28;20048;-74
2023/07/25 02:10:32;;;;;;;1.85;1.15;;;;;;;14.96;100.00;100205.19;6281495;28;20345;-74
2023/07/25 02:13:33;;;;;;;5.82;1.60;;;;;;;14.90;100.00;100203.88;6278623;28;20049;-74
2023/07/25 02:16:36;;;;;;;3.30;1.40;;;;;;;14.84;100.00;100206.16;6285169;28;20040;-74
2023/07/25 02:19:38;;;;;;;4.45;1.27;;;;;;;14.87;100.00;100206.78;6280290;28;20132;-74
2023/07/25 02:22:39;;;;;;;4.80;1.45;;;;;;;14.84;100.00;100206.16;6277944;28;20080;-74
2023/07/25 02:25:42;;;;;;;4.40;1.40;;;;;;;14.87;100.00;100198.00;6278183;28;20044;-74
2023/07/25 02:28:43;;;;;;;3.10;1.70;;;;;;;14.81;100.00;100198.50;6278425;28;20056;-74
2023/07/25 02:31:45;;;;;;;4.57;1.40;;;;;;;14.86;100.00;100194.50;6278341;28;20044;-74
2023/07/25 02:34:46;;;;;;;2.97;1.70;;;;;;;14.86;100.00;100194.50;6278156;28;20045;-74
2023/07/25 02:37:48;;;;;;;4.03;1.17;;;;;;;14.80;100.00;100194.97;6278107;28;20052;-74
2023/07/25 02:40:50;;;;;;;6.97;1.77;;;;;;;14.75;100.00;100199.81;6278275;28;20056;-74
2023/07/25 02:43:52;;;;;;;5.90;1.70;;;;;;;14.69;100.00;100200.31;6276336;28;20357;-74
2023/07/25 02:46:53;;;;;;;5.05;1.85;;;;;;;14.59;100.00;100200.19;6270491;28;20049;-74
2023/07/25 02:49:55;;;;;;;4.22;1.58;;;;;;;14.59;100.00;100196.72;6286430;28;20048;-74
2023/07/25 02:52:56;;;;;;;2.38;1.63;;;;;;;14.58;100.00;100195.88;6277565;28;20045;-74
2023/07/25 02:55:59;;;;;;;2.38;1.50;;;;;;;14.60;100.00;100196.56;6286407;28;20048;-74
2023/07/25 02:59:00;;;;;;;2.20;1.67;;;;;;;14.51;100.00;100189.38;6277752;28;20437;-74
2023/07/25 03:02:02;;;;;;;2.83;1.75;;;;;;;14.49;100.00;100187.78;6286070;28;20051;-74
2023/07/25 03:05:03;;;;;;;3.45;1.70;;;;;;;14.48;100.00;100189.59;6277587;28;20053;-74
2023/07/25 03:08:05;;;;;;;3.38;1.70;;;;;;;14.42;100.00;100192.69;6277862;28;20052;-74
2023/07/25 03:11:08;;;;;;;5.78;1.63;;;;;;;14.43;100.00;100197.03;6277431;28;20392;-74
2023/07/25 03:14:09;;;;;;;5.50;1.50;;;;;;;14.48;100.00;100197.53;6277136;28;20361;-74
2023/07/25 03:17:11;;;;;;;4.60;1.83;;;;;;;14.36;100.00;100191.38;6277559;28;20045;-74
2023/07/25 03:20:13;;;;;;;4.15;1.50;;;;;;;14.42;100.00;100184.78;6277385;28;20041;-74
2023/07/25 03:23:14;;;;;;;11.50;1.92;;;;;;;14.53;100.00;100192.72;6276975;28;20047;-74
2023/07/25 03:26:17;;;;;;;2.65;1.42;;;;;;;14.57;100.00;100180.94;6277135;28;20052;-74
2023/07/25 03:29:19;;;;;;;4.43;2.30;;;;;;;14.54;100.00;100177.72;6285671;28;20080;-74
2023/07/25 03:32:20;;;;;;;9.07;1.85;;;;;;;14.50;100.00;100182.41;6276768;28;20580;-74
2023/07/25 03:35:21;;;;;;;5.28;1.10;;;;;;;14.48;100.00;100173.75;6277134;28;20056;-74
2023/07/25 03:38:23;;;;;;;2.67;1.77;;;;;;;14.41;100.00;100180.47;6281542;28;20047;-74
2023/07/25 03:41:26;;;;;;;4.25;1.50;;;;;;;14.40;100.00;100176.97;6280396;28;20045;-74
2023/07/25 03:44:27;;;;;;;4.43;1.52;;;;;;;14.40;100.00;100181.41;6271266;28;20041;-74
2023/07/25 03:47:28;;;;;;;4.82;2.50;;;;;;;14.41;100.00;100180.47;6256702;28;20044;-74
2023/07/25 03:50:30;;;;;;;4.15;1.65;;;;;;;14.36;100.00;100195.84;6254929;28;20568;-74
2023/07/25 03:53:32;;;;;;;4.07;1.83;;;;;;;14.33;100.00;100198.72;6263390;28;20036;-74
2023/07/25 03:56:34;;;;;;;7.22;2.35;;;;;;;14.32;100.00;100189.94;6260097;28;20044;-75
2023/07/25 03:59:36;;;;;;;4.07;1.70;;;;;;;14.34;100.00;100185.38;6256067;28;20131;-75
2023/07/25 04:02:37;;;;;;;2.38;1.40;;;;;;;14.34;100.00;100195.09;6256254;28;20071;-74
2023/07/25 04:05:39;;;;;;;2.30;1.73;;;;;;;14.24;100.00;100192.34;6255925;28;20037;-74
2023/07/25 04:08:40;;;;;;;10.45;2.17;;;;;;;14.11;100.00;100194.22;6255620;28;20041;-74
2023/07/25 04:11:43;;;;;;;5.80;1.80;;;;;;;14.00;100.00;100200.34;6264490;28;20452;-76
2023/07/25 04:14:44;;;;;;;2.15;1.63;;;;;;;14.10;100.00;100193.41;6256320;28;20045;-74
2023/07/25 04:17:45;;;;;;;4.03;1.83;;;;;;;14.16;100.00;100197.38;6270485;28;20052;-74
2023/07/25 04:20:47;;;;;;;5.47;2.13;;;;;;;13.94;100.00;100199.03;6281836;28;20053;-74
2023/07/25 04:23:48;;;;;;;3.83;2.10;;;;;;;13.86;100.00;100192.66;6274033;28;20357;-74
2023/07/25 04:26:51;;;;;;;3.60;1.77;;;;;;;13.94;100.00;100198.16;6275370;28;20045;-74
2023/07/25 04:29:52;;;;;;;2.17;1.50;;;;;;;14.00;100.00;100187.16;6261223;28;20045;-74
2023/07/25 04:32:54;;;;;;;3.55;2.13;;;;;;;13.97;100.00;100197.94;6271459;28;20055;-75
2023/07/25 04:35:55;;;;;;;6.38;1.63;;;;;;;13.98;100.00;100201.41;6271458;28;20373;-74
2023/07/25 04:38:57;;;;;;;9.63;1.77;;;;;;;14.02;100.00;100202.88;6278707;28;20060;-74
2023/07/25 04:41:59;;;;;;;7.85;2.03;;;;;;;14.09;100.00;100207.56;6267912;28;20337;-74
2023/07/25 04:45:01;;;;;;;3.72;2.00;;;;;;;14.14;100.00;100205.41;6271446;28;20084;-74
2023/07/25 04:48:03;;;;;;;6.63;2.10;;;;;;;14.10;100.00;100206.63;6275022;28;20052;-74
2023/07/25 04:51:04;;;;;;;3.55;1.63;;;;;;;14.06;100.00;100210.44;6272704;28;20045;-74
2023/07/25 04:54:05;;;;;;;4.05;2.58;;;;;;;14.00;100.00;100213.56;6274422;28;20353;-74
2023/07/25 04:57:08;;;;;;;6.75;2.50;;;;;;;14.05;100.00;100214.06;6274794;28;20049;-74
2023/07/25 05:00:11;;;;;;;4.10;2.05;;;;;;;13.87;100.00;100216.28;6274809;28;20048;-74
2023/07/25 05:03:12;;;;;;;6.78;2.17;;;;;;;13.85;100.00;100218.22;6274179;28;20057;-74
2023/07/25 05:06:13;;;;;;;14.32;3.53;;;;;;;13.65;100.00;100214.41;6283363;28;20429;-74
2023/07/25 05:09:16;;;;;;;5.90;2.45;;;;;;;13.81;100.00;100214.13;6275233;28;20040;-74
2023/07/25 05:12:18;;;;;;;3.55;2.00;;;;;;;13.93;100.00;100210.53;6274156;28;20041;-73
2023/07/25 05:15:20;;;;;;;6.35;2.10;;;;;;;14.01;100.00;100217.03;6271932;28;20048;-74
2023/07/25 05:18:21;;;;;;;5.75;2.17;;;;;;;14.00;100.00;100218.00;6274380;28;20052;-74
2023/07/25 05:21:22;;;;;;;4.80;1.92;;;;;;;14.08;100.00;100213.81;6273645;28;20430;-74
2023/07/25 05:24:24;;;;;;;12.63;3.80;;;;;;;14.10;100.00;100213.69;6274005;28;20372;-74
2023/07/25 05:27:27;;;;;;;3.75;2.10;;;;;;;14.02;100.00;100209.00;6277163;28;20068;-74
2023/07/25 05:30:28;;;;;;;8.00;2.33;;;;;;;14.07;100.00;100208.63;6274747;28;20049;-74
2023/07/25 05:33:30;;;;;;;7.40;2.85;;;;;;;14.10;100.00;100213.69;6282755;28;20045;-73
2023/07/25 05:36:31;;;;;;;3.92;2.13;;;;;;;14.18;100.00;100206.88;6271857;28;20045;-74
2023/07/25 05:39:32;;;;;;;3.42;2.15;;;;;;;14.19;100.00;100213.84;6266522;28;20045;-73
2023/07/25 05:42:35;;;;;;;8.90;2.58;;;;;;;14.08;100.00;100205.91;6264385;28;20187;-73
2023/07/25 05:45:36;;;;;;;6.40;1.98;;;;;;;14.12;100.00;100198.56;6261955;28;20052;-74
2023/07/25 05:48:38;;;;;;;3.85;2.13;;;;;;;14.14;100.00;100196.66;6267136;28;20064;-73
2023/07/25 05:51:39;;;;;;;6.40;2.35;;;;;;;14.20;100.00;100204.94;6259191;28;20448;-73
2023/07/25 05:54:41;;;;;;;7.53;2.67;;;;;;;14.27;100.00;100207.97;6272178;28;20052;-73
2023/07/25 05:57:43;;;;;;;6.50;2.42;;;;;;;14.34;100.00;100197.75;6272853;28;20041;-73
2023/07/25 06:00:46;;;;;;;6.50;1.90;;;;;;;14.40;100.00;100198.13;6272375;28;20045;-73
2023/07/25 06:03:47;;;;;;;4.18;1.75;;;;;;;14.43;100.00;100197.84;6271872;28;20048;-73
2023/07/25 06:06:48;;;;;;;5.63;1.98;;;;;;;14.46;100.00;100202.09;6272991;28;20464;-73
2023/07/25 06:09:50;;;;;;;2.45;1.25;;;;;;;14.51;100.00;100205.22;6274079;28;20041;-73
2023/07/25 06:12:52;;;;;;;6.63;1.50;;;;;;;14.51;100.00;100207.88;6275444;28;20484;-74
2023/07/25 06:15:54;;;;;;;7.15;1.60;;;;;;;14.52;100.00;100206.06;6276081;28;20037;-73
2023/07/25 06:18:56;;;;;;;3.95;1.50;;;;;;;14.54;100.00;100212.09;6278348;28;20041;-73
2023/07/25 06:21:57;;;;;;;8.68;2.28;;;;;;;14.65;100.00;100217.38;6278290;28;20041;-73
2023/07/25 06:24:58;;;;;;;6.47;1.80;;;;;;;14.64;100.00;100213.06;6278081;28;20072;-73
2023/07/25 06:28:01;;;;;;;6.75;2.00;;;;;;;14.63;100.00;100214.84;6278295;28;20053;-73
2023/07/25 06:31:03;;;;;;;3.20;1.60;;;;;;;14.51;100.00;100213.16;6277948;28;20040;-73
2023/07/25 06:34:04;;;;;;;4.85;1.65;;;;;;;14.56;100.00;100215.44;6277882;28;20102;-73
2023/07/25 06:37:06;;;;;;;4.82;1.80;;;;;;;14.61;100.00;100222.06;6280589;28;20444;-73
2023/07/25 06:40:09;;;;;;;11.93;2.00;;;;;;;14.68;100.00;100231.19;6277760;28;20120;-73
2023/07/25 06:43:11;;;;;;;7.43;1.58;;;;;;;14.74;100.00;100236.97;6280141;28;20049;-74
2023/07/25 06:46:13;;;;;;;4.47;1.73;;;;;;;14.66;100.00;100240.19;6277634;28;20045;-73
2023/07/25 06:49:14;;;;;;;3.55;2.03;;;;;;;14.68;100.00;100244.44;6275220;28;20052;-73
2023/07/25 06:52:15;;;;;;;7.43;1.48;;;;;;;14.77;100.00;100242.03;6279954;28;20048;-73
2023/07/25 06:55:19;;;;;;;9.60;1.60;;;;;;;14.81;100.00;100243.47;6277209;28;20056;-74
2023/07/25 06:58:21;;;;;;;2.80;1.15;;;;;;;14.85;100.00;100252.81;6277595;28;20045;-73
2023/07/25 07:01:27;;;;;;;3.80;1.50;;;;;;;14.84;100.00;100245.84;6277363;28;20044;-73
2023/07/25 07:04:29;;;;;;;10.60;2.20;;;;;;;14.82;100.00;100256.56;6277599;28;20129;-73
2023/07/25 07:07:30;;;;;;;3.08;1.33;;;;;;;14.90;100.00;100259.44;6282490;28;20066;-73
2023/07/25 07:10:33;;;;;;;3.65;1.17;;;;;;;14.90;100.00;100264.75;6280805;28;20045;-73
2023/07/25 07:13:36;;;;;;;2.60;1.17;;;;;;;14.92;100.00;100267.25;6277224;28;20464;-73
2023/07/25 07:16:37;;;;;;;5.03;1.20;;;;;;;14.97;100.00;100273.88;6277371;28;20074;-73
2023/07/25 07:19:39;;;;;;;2.22;1.33;;;;;;;15.10;100.00;100268.44;6285764;28;20098;-73
2023/07/25 07:22:40;;;;;;;2.97;0.98;;;;;;;15.16;100.00;100270.59;6276712;28;20037;-73
2023/07/25 07:25:42;;;;;;;4.40;1.48;;;;;;;15.17;100.00;100266.13;6276264;28;20045;-73
2023/07/25 07:28:45;;;;;;;4.97;1.33;;;;;;;15.18;100.00;100266.03;6277166;28;20044;-73
2023/07/25 07:31:46;;;;;;;5.18;1.20;;;;;;;15.36;100.00;100265.50;6276959;28;20124;-73
2023/07/25 07:34:48;;;;;;;6.43;1.15;;;;;;;15.36;100.00;100262.88;6276864;28;20048;-76
2023/07/25 07:37:49;;;;;;;1.70;0.85;;;;;;;15.47;100.00;100261.00;6277153;28;20049;-74
2023/07/25 07:40:50;;;;;;;5.20;1.65;;;;;;;15.45;100.00;100262.13;6276723;28;20433;-74
2023/07/25 07:43:54;;;;;;;2.70;1.27;;;;;;;15.48;100.00;100264.50;6276055;28;20346;-74
2023/07/25 07:46:56;;;;;;;1.10;0.88;;;;;;;15.42;100.00;100265.84;6275913;28;20065;-74
2023/07/25 07:49:57;;;;;;;5.38;0.90;;;;;;;15.43;100.00;100256.94;6276574;28;20138;-74
2023/07/25 07:52:59;;;;;;;3.47;0.98;;;;;;;15.40;100.00;100259.84;6276218;28;20041;-74
2023/07/25 07:56:04;;;;;;;8.40;1.10;;;;;;;15.43;100.00;100256.94;6276411;28;20053;-74
2023/07/25 07:59:07;;;;;;;3.13;1.02;;;;;;;15.49;100.00;100255.63;6276928;28;20056;-74
2023/07/25 08:02:08;;;;;;;3.33;0.93;;;;;;;15.55;100.00;100257.75;6276050;28;20049;-73
2023/07/25 08:05:11;;;;;;;13.55;1.85;;;;;;;15.59;100.00;100253.03;6278302;28;20433;-74
2023/07/25 08:08:14;;;;;;;1.88;1.10;;;;;;;15.64;100.00;100253.53;6281993;28;20055;-73
2023/07/25 08:11:15;;;;;;;2.50;0.90;;;;;;;15.61;100.00;100240.50;6276292;28;20167;-74
2023/07/25 08:14:18;;;;;;;1.52;0.85;;;;;;;15.62;100.00;100240.38;6275681;28;20078;-73
2023/07/25 08:17:19;;;;;;;2.05;0.98;;;;;;;15.71;100.00;100242.31;6276183;28;20049;-74
2023/07/25 08:20:20;;;;;;;3.58;0.70;;;;;;;15.74;100.00;100241.19;6284239;28;20044;-74
2023/07/25 08:23:22;;;;;;;3.22;0.88;;;;;;;15.78;100.00;100242.63;6283768;28;20436;-74
2023/07/25 08:26:23;;;;;;;1.70;0.60;;;;;;;15.78;100.00;100245.28;6275933;28;20055;-74
2023/07/25 08:29:26;;;;;;;2.13;1.00;;;;;;;15.78;100.00;100239.97;6275845;28;20060;-74
2023/07/25 08:32:28;;;;;;;2.08;0.77;;;;;;;15.84;100.00;100235.97;6275559;28;20041;-74
2023/07/25 08:35:29;;;;;;;2.60;0.80;;;;;;;15.94;100.00;100234.22;6272857;28;20049;-77
2023/07/25 08:38:31;;;;;;;0.75;0.73;;;;;;;16.06;100.00;100227.06;6275505;28;20072;-77
2023/07/25 08:41:37;;;;;;;5.38;0.88;;;;;;;16.12;100.00;100219.41;6273494;28;20047;-77
2023/07/25 08:44:40;;;;;;;3.83;0.93;;;;;;;16.23;100.00;100226.47;6274677;28;20345;-77
2023/07/25 08:47:45;;;;;;;3.20;1.20;;;;;;;16.16;100.00;100233.25;6280638;28;20053;-77
2023/07/25 08:50:48;;;;;;;2.30;0.80;;;;;;;16.16;100.00;100235.91;6274772;28;20076;-77
2023/07/25 08:53:57;;;;;;;1.48;1.00;;;;;;;16.27;100.00;100229.72;6275306;28;20049;-77
2023/07/25 08:56:59;;;;;;;3.47;0.95;;;;;;;16.35;100.00;100227.22;6273423;28;20052;-77
2023/07/25 09:00:02;;;;;;;3.40;1.15;;;;;;;16.53;100.00;100215.03;6274926;28;20041;-78
2023/07/25 09:03:04;;;;;;;2.15;0.70;;;;;;;16.64;100.00;100227.38;6275008;28;20045;-77
2023/07/25 09:06:07;;;;;;;3.72;1.00;;;;;;;16.72;100.00;100233.72;6275183;28;20056;-77
2023/07/25 09:09:09;;;;;;;3.67;0.63;;;;;;;16.79;100.00;100238.50;6274951;28;20049;-77
2023/07/25 09:12:10;;;;;;;2.63;1.20;;;;;;;16.80;100.00;100232.19;6283181;28;20449;-77
2023/07/25 09:15:13;;;;;;;2.45;1.10;;;;;;;16.85;100.00;100225.53;6274800;28;20049;-77
2023/07/25 09:18:14;;;;;;;1.35;0.50;;;;;;;17.04;100.00;100229.22;6275395;28;20049;-76
2023/07/25 09:21:16;;;;;;;1.85;0.88;;;;;;;17.09;100.00;100245.59;6283090;28;20045;-78
2023/07/25 09:24:18;;;;;;;1.80;0.90;;;;;;;17.06;100.00;100235.22;6282777;28;20041;-76
2023/07/25 09:27:19;;;;;;;4.70;1.10;;;;;;;17.08;100.00;100235.91;6274813;28;20048;-74
2023/07/25 09:30:27;;;;;;;1.52;0.80;;;;;;;17.09;100.00;100248.25;6277032;28;20045;-77
2023/07/25 09:33:29;;;;;;;5.20;0.90;;;;;;;17.05;100.00;100244.16;6276513;28;20048;-77
2023/07/25 09:36:31;;;;;;;3.75;1.13;;;;;;;17.16;100.00;100247.53;6274486;28;20049;-76
2023/07/25 09:39:34;;;;;;;3.05;0.68;;;;;;;17.31;100.00;100236.53;6274280;28;20075;-78
2023/07/25 09:42:41;;;;;;;4.53;1.13;;;;;;;17.34;100.00;100238.91;6279384;28;20396;-77
2023/07/25 09:45:43;;;;;;;2.05;1.10;;;;;;;17.19;100.00;100243.78;6274784;28;20053;-76
2023/07/25 09:48:46;;;;;;;2.33;0.90;;;;;;;17.12;100.00;100242.63;6278173;28;20045;-76
2023/07/25 09:51:57;;;;;;;4.75;1.48;;;;;;;16.94;100.00;100245.09;6279306;28;20128;-77
2023/07/25 09:54:59;;;;;;;5.20;1.25;;;;;;;16.90;100.00;100254.34;6271677;28;20048;-78
2023/07/25 09:58:01;;;;;;;6.80;1.30;;;;;;;16.79;100.00;100268.53;6287721;28;20049;-77
2023/07/25 10:01:04;;;;;;;2.70;1.10;;;;;;;16.54;100.00;100268.94;6286829;28;20048;-76
2023/07/25 10:04:07;;;;;;;1.02;0.93;;;;;;;16.44;100.00;100271.53;6280256;28;20044;-76
2023/07/25 10:07:08;;;;;;;4.28;1.40;;;;;;;16.44;100.00;100263.56;6285804;28;20360;-76
2023/07/25 10:10:11;;;;;;;2.72;1.17;;;;;;;16.36;100.00;100274.84;6279166;28;20049;-76
2023/07/25 10:13:14;;;;;;;3.22;1.15;;;;;;;16.36;100.00;100274.84;6278443;28;20049;-76
2023/07/25 10:16:18;;;;;;;6.07;1.67;;;;;;;16.43;100.00;100268.03;6287086;28;20052;-76
2023/07/25 10:19:19;;;;;;;4.13;1.25;;;;;;;16.47;100.00;100263.31;6290047;28;20091;-77
2023/07/25 10:22:34;;;;;;;6.65;1.17;;;;;;;16.59;100.00;100272.88;6283708;28;20045;-77
2023/07/25 10:25:35;;;;;;;4.25;1.05;;;;;;;16.64;100.00;100275.13;6278598;28;20357;-78
2023/07/25 10:28:37;;;;;;;1.70;0.80;;;;;;;16.81;100.00;100273.72;6286820;28;20061;-77
2023/07/25 10:31:51;;;;;;;1.40;0.73;;;;;;;16.87;100.00;100271.34;6277613;28;20052;-77
2023/07/25 10:35:01;;;;;;;2.08;0.90;;;;;;;16.85;100.00;100273.31;6278404;28;20429;-77
2023/07/25 10:38:08;;;;;;;1.10;0.90;;;;;;;17.02;100.00;100276.28;6270833;28;20049;-77
2023/07/25 10:41:13;;;;;;;1.98;0.73;;;;;;;17.12;100.00;100271.84;6278627;28;20052;-76
2023/07/25 10:44:37;;;;;;;0.50;0.50;;;;;;;17.11;100.00;100267.50;6277954;28;20049;-76
2023/07/25 10:47:48;;;;;;;2.05;0.90;;;;;;;17.15;100.00;100269.75;6286587;28;20071;-76
2023/07/25 10:50:53;;;;;;;2.70;0.60;;;;;;;17.09;100.00;100258.84;6278251;28;20049;-77
2023/07/25 10:54:08;;;;;;;3.10;1.00;;;;;;;17.07;100.00;100266.94;6277368;28;20052;-76
2023/07/25 10:57:16;;;;;;;1.92;0.68;;;;;;;17.10;100.00;100272.00;6271301;28;20460;-77
2023/07/25 11:00:18;;;;;;;1.53;0.60;;;;;;;17.16;100.00;100265.28;6277817;28;20456;-77
2023/07/25 11:03:28;;;;;;;2.03;0.57;;;;;;;17.21;100.00;100269.25;6277443;28;20048;-77
2023/07/25 11:06:40;;;;;;;0.90;0.68;;;;;;;17.23;100.00;100261.13;6286030;28;20334;-77
2023/07/25 11:09:42;;;;;;;4.82;0.80;;;;;;;17.29;100.00;100255.25;6277618;28;20433;-76
2023/07/25 11:12:44;;;;;;;2.60;0.70;;;;;;;17.33;100.00;100258.47;6277330;28;20041;-77
2023/07/25 11:15:46;;;;;;;0.50;0.50;;;;;;;17.45;100.00;100255.56;6277545;28;20052;-77
2023/07/25 11:18:51;;;;;;;0.40;0.40;;;;;;;17.61;100.00;100251.50;6277519;28;20041;-77
2023/07/25 11:21:52;;;;;;;0.85;0.43;;;;;;;17.72;100.00;100254.88;6277307;28;20349;-77
2023/07/25 11:24:55;;;;;;;4.95;0.57;;;;;;;17.79;100.00;100243.72;6277216;28;20064;-77
2023/07/25 11:27:56;;;;;;;1.90;0.80;;;;;;;17.94;100.00;100255.59;6277181;28;20373;-77
2023/07/25 11:30:58;;;;;;;0.93;0.50;;;;;;;17.96;100.00;100256.31;6277096;28;20045;-78
2023/07/25 11:34:10;;;;;;;2.40;0.60;;;;;;;17.98;100.00;100249.00;6276665;28;20056;-77
2023/07/25 11:37:12;;;;;;;1.38;0.70;;;;;;;17.96;100.00;100249.16;6276956;28;20463;-76
2023/07/25 11:40:16;;;;;;;1.00;0.50;;;;;;;17.91;100.00;100246.09;6276870;28;20052;-76
2023/07/25 11:43:18;;;;;;;0.80;0.47;;;;;;;17.91;100.00;100254.06;6276284;28;20369;-76
2023/07/25 11:46:20;;;;;;;1.33;0.95;;;;;;;17.91;100.00;100253.25;6276930;28;20056;-77
2023/07/25 11:49:23;;;;;;;3.78;0.60;;;;;;;17.96;100.00;100254.47;6276671;28;20048;-76
2023/07/25 11:52:25;;;;;;;6.60;0.90;;;;;;;18.03;100.00;100249.41;6276434;28;20052;-77
2023/07/25 11:55:27;;;;;;;4.60;0.80;;;;;;;18.06;100.00;100254.47;6275988;28;20060;-77
2023/07/25 11:58:28;;;;;;;3.17;0.47;;;;;;;18.07;100.00;100249.97;6276700;28;20048;-77
2023/07/25 12:01:32;;;;;;;5.97;0.90;;;;;;;18.03;100.00;100252.09;6284574;28;20045;-77
2023/07/25 12:04:42;;;;;;;1.23;0.55;;;;;;;18.08;100.00;100247.22;6276032;28;20348;-73
2023/07/25 12:07:51;;;;;;;2.42;0.95;;;;;;;18.15;100.00;100244.81;6276403;28;20052;-77
2023/07/25 12:10:52;;;;;;;3.20;0.93;;;;;;;18.21;100.00;100233.56;6275791;28;20045;-76
2023/07/25 12:13:56;;;;;;;5.07;0.95;;;;;;;18.25;100.00;100238.47;6282980;28;20369;-76
2023/07/25 12:17:03;;;;;;;4.22;0.90;;;;;;;18.20;100.00;100251.38;6284408;28;20052;-76
2023/07/25 12:20:13;;;;;;;2.05;0.55;;;;;;;18.14;100.00;100257.25;6268656;28;20084;-77
2023/07/25 12:23:14;;;;;;;4.05;0.60;;;;;;;17.89;100.00;100273.78;6283831;28;20361;-76
2023/07/25 12:26:20;;;;;;;0.63;0.43;;;;;;;17.72;100.00;100276.16;6275868;28;20056;-76
2023/07/25 12:29:24;;;;;;;1.58;0.60;;;;;;;17.64;100.00;100272.50;6275534;28;20041;-76
2023/07/25 12:32:25;;;;;;;1.35;0.45;;;;;;;17.65;100.00;100271.53;6274694;28;20048;-77
2023/07/25 12:35:28;;;;;;;0.70;0.60;;;;;;;17.62;100.00;100277.97;6279561;28;20094;-76
2023/07/25 12:38:30;;;;;;;0.70;0.60;;;;;;;17.65;100.00;100276.84;6275353;28;20048;-77
2023/07/25 12:41:31;;;;;;;1.38;0.60;;;;;;;17.67;100.00;100277.56;6274961;28;20048;-78
2023/07/25 12:44:33;;;;;;;1.58;0.60;;;;;;;17.74;100.00;100286.66;6274555;28;20063;-76
2023/07/25 12:47:34;;;;;;;3.17;0.65;;;;;;;17.93;100.00;100277.84;6274889;28;20477;-76
2023/07/25 12:50:39;;;;;;;1.70;0.60;;;;;;;18.21;100.00;100281.44;6275232;28;20126;-76
2023/07/25 12:53:40;;;;;;;4.40;0.60;;;;;;;18.59;100.00;100287.69;6272223;28;20429;-76
2023/07/25 12:56:41;;;;;;;0.40;0.40;;;;;;;18.68;98.93;100284.16;6275498;28;20048;-75
2023/07/25 12:59:43;;;;;;;1.63;0.40;;;;;;;18.61;98.15;100288.38;6275207;28;20057;-78
2023/07/25 13:02:44;;;;;;;6.22;0.93;;;;;;;18.72;100.00;100280.25;6274907;28;20436;-75
2023/07/25 13:05:47;;;;;;;1.38;0.63;;;;;;;18.79;100.00;100278.66;6275138;28;20067;-76
2023/07/25 13:08:48;;;;;;;2.38;0.55;;;;;;;19.00;100.00;100275.78;6275021;28;20063;-76
2023/07/25 13:11:50;;;;;;;0.95;0.50;;;;;;;19.05;100.00;100268.19;6275107;28;20063;-76
2023/07/25 13:14:51;;;;;;;2.20;0.60;;;;;;;18.91;100.00;100287.31;6274550;28;20067;-75
2023/07/25 13:17:53;;;;;;;1.58;0.35;;;;;;;18.68;99.56;100266.38;6275109;28;20056;-75
2023/07/25 13:20:55;;;;;;;1.95;1.00;;;;;;;18.75;100.00;100274.63;6275674;28;20331;-75
2023/07/25 13:23:57;;;;;;;1.10;0.60;;;;;;;18.74;100.00;100273.78;6280004;28;20056;-76
2023/07/25 13:26:58;;;;;;;1.70;0.35;;;;;;;18.82;100.00;100272.22;6288287;28;20356;-75
2023/07/25 13:30:00;;;;;;;0.50;0.50;;;;;;;18.77;100.00;100269.19;6280131;28;20053;-77
2023/07/25 13:33:04;;;;;;;4.55;1.30;;;;;;;18.75;100.00;100270.13;6279405;28;20353;-77
2023/07/25 13:36:07;;;;;;;2.85;0.55;;;;;;;18.69;100.00;100270.72;6272417;28;20134;-75
2023/07/25 13:39:08;;;;;;;3.63;0.60;;;;;;;18.61;100.00;100259.94;6279873;28;20093;-75
2023/07/25 13:42:09;;;;;;;2.70;0.60;;;;;;;18.57;100.00;100268.34;6279417;28;20433;-77
2023/07/25 13:45:11;;;;;;;2.20;0.90;;;;;;;18.59;100.00;100269.91;6279582;28;20060;-76
2023/07/25 13:48:12;;;;;;;3.72;0.77;;;;;;;18.64;100.00;100272.97;6287902;28;20049;-76
2023/07/25 13:51:15;;;;;;;0.50;0.50;;;;;;;18.62;100.00;100274.06;6279682;28;20049;-75
2023/07/25 13:54:18;;;;;;;3.85;0.68;;;;;;;18.64;100.00;100269.47;6287280;28;20357;-75
2023/07/25 13:57:20;;;;;;;5.43;1.10;;;;;;;18.79;100.00;100275.19;6279456;28;20356;-76